createdAt,value
2024-01-17T00:01:31.281Z,53.77
2024-01-17T00:04:01.907Z,54.15
2024-01-17T00:06:31.903Z,53.96
2024-01-17T00:09:01.189Z,53.89
2024-01-17T00:11:30.182Z,53.76
2024-01-17T00:13:59.457Z,54.23
2024-01-17T00:16:28.517Z,54.00
2024-01-17T00:18:57.980Z,53.99
2024-01-17T00:21:28.389Z,54.08
2024-01-17T00:23:57.772Z,54.26
2024-01-17T00:26:26.799Z,54.43
2024-01-17T00:28:57.033Z,54.03
2024-01-17T00:31:25.986Z,54.07
2024-01-17T00:33:55.462Z,54.27
2024-01-17T00:36:24.989Z,54.26
2024-01-17T00:38:55.709Z,54.16
2024-01-17T00:41:24.650Z,54.20
2024-01-17T00:43:53.951Z,54.30
2024-01-17T00:46:22.857Z,54.35
2024-01-17T00:48:52.364Z,54.43
2024-01-17T00:51:24.841Z,54.62
2024-01-17T00:53:55.804Z,54.71
2024-01-17T00:56:24.741Z,54.84
2024-01-17T00:58:54.014Z,54.28
2024-01-17T01:01:23.405Z,54.31
2024-01-17T01:04:10.874Z,54.18
2024-01-17T01:06:40.207Z,54.30
2024-01-17T01:09:11.216Z,54.61
2024-01-17T01:11:41.639Z,54.67
2024-01-17T01:14:11.090Z,54.60
2024-01-17T01:16:40.471Z,54.32
2024-01-17T01:19:09.548Z,54.53
2024-01-17T01:21:38.980Z,54.61
2024-01-17T01:24:07.986Z,54.73
2024-01-17T01:26:38.862Z,54.75
2024-01-17T01:29:09.287Z,54.66
2024-01-17T01:31:38.534Z,54.67
2024-01-17T01:34:07.513Z,54.42
2024-01-17T01:36:36.774Z,54.63
2024-01-17T01:39:05.923Z,54.38
2024-01-17T01:41:35.250Z,54.54
2024-01-17T01:44:06.369Z,54.87
2024-01-17T01:46:35.569Z,54.85
2024-01-17T01:49:04.745Z,55.04
2024-01-17T01:51:34.077Z,54.76
2024-01-17T01:54:04.160Z,54.87
2024-01-17T01:56:34.028Z,55.21
2024-01-17T01:59:03.046Z,55.04
2024-01-17T02:01:33.778Z,54.80
2024-01-17T02:04:03.157Z,54.98
2024-01-17T02:06:33.072Z,54.68
2024-01-17T02:09:02.497Z,54.79
2024-01-17T02:11:31.973Z,54.72
2024-01-17T02:14:00.927Z,54.80
2024-01-17T02:16:30.270Z,55.17
2024-01-17T02:19:00.862Z,55.00
2024-01-17T02:21:30.815Z,54.82
2024-01-17T02:24:14.699Z,55.21
2024-01-17T02:26:45.475Z,55.15
2024-01-17T02:29:14.434Z,54.89
2024-01-17T02:31:45.681Z,54.99
2024-01-17T02:34:14.972Z,55.31
2024-01-17T02:36:44.317Z,54.92
2024-01-17T02:39:13.284Z,55.39
2024-01-17T02:41:42.613Z,55.55
2024-01-17T02:44:12.951Z,55.51
2024-01-17T02:46:42.243Z,55.39
2024-01-17T02:49:15.539Z,55.35
2024-01-17T02:51:45.150Z,55.19
2024-01-17T02:54:14.046Z,55.28
2024-01-17T02:56:43.350Z,55.28
2024-01-17T02:59:13.883Z,55.50
2024-01-17T03:01:43.262Z,55.30
2024-01-17T03:04:12.274Z,55.49
2024-01-17T03:06:41.571Z,55.36
2024-01-17T03:09:12.129Z,55.74
2024-01-17T03:11:42.201Z,55.39
2024-01-17T03:14:11.111Z,55.81
2024-01-17T03:16:41.730Z,55.55
2024-01-17T03:19:11.020Z,55.62
2024-01-17T03:21:46.146Z,55.63
2024-01-17T03:24:15.140Z,55.88
2024-01-17T03:26:44.626Z,55.92
2024-01-17T03:29:13.490Z,55.69
2024-01-17T03:31:44.112Z,55.74
2024-01-17T03:34:13.219Z,56.04
2024-01-17T03:36:42.607Z,55.71
2024-01-17T03:39:11.633Z,55.63
2024-01-17T03:41:40.991Z,55.65
2024-01-17T03:44:09.979Z,55.90
2024-01-17T03:46:39.330Z,56.16
2024-01-17T03:51:38.846Z,56.12
2024-01-17T03:54:07.947Z,55.91
2024-01-17T03:56:37.344Z,56.15
2024-01-17T03:59:06.616Z,56.00
2024-01-17T04:01:39.808Z,56.37
2024-01-17T04:04:10.197Z,56.15
2024-01-17T04:06:39.640Z,56.22
2024-01-17T04:09:08.899Z,56.47
2024-01-17T04:11:38.234Z,56.16
2024-01-17T04:14:07.350Z,56.06
2024-01-17T04:16:37.221Z,56.18
2024-01-17T04:19:06.325Z,56.48
2024-01-17T04:21:37.640Z,56.32
2024-01-17T04:24:06.869Z,56.37
2024-01-17T04:33:27.257Z,55.97
2024-01-17T04:36:03.085Z,56.48
2024-01-17T04:38:38.729Z,56.42
2024-01-17T04:41:07.876Z,56.08
2024-01-17T04:43:37.172Z,56.26
2024-01-17T04:46:06.586Z,56.41
2024-01-17T04:48:37.184Z,56.57
2024-01-17T04:51:06.744Z,56.50
2024-01-17T04:53:36.132Z,56.03
2024-01-17T04:56:07.299Z,56.62
2024-01-17T04:58:36.981Z,56.34
2024-01-17T05:01:06.698Z,56.44
2024-01-17T05:03:39.321Z,56.39
2024-01-17T05:06:09.449Z,56.28
2024-01-17T05:08:38.954Z,56.51
2024-01-17T05:11:09.400Z,56.70
2024-01-17T05:13:39.550Z,56.59
2024-01-17T05:16:08.971Z,56.62
2024-01-17T05:18:40.492Z,56.94
2024-01-17T05:21:11.476Z,56.99
2024-01-17T05:23:41.293Z,56.96
2024-01-17T05:26:11.885Z,57.00
2024-01-17T05:28:43.301Z,56.87
2024-01-17T05:31:12.528Z,56.73
2024-01-17T05:33:42.140Z,57.18
2024-01-17T05:36:11.389Z,56.86
2024-01-17T05:38:41.033Z,57.00
2024-01-17T05:41:11.494Z,56.78
2024-01-17T05:43:41.878Z,56.73
2024-01-17T05:46:11.034Z,56.99
2024-01-17T05:48:40.674Z,57.20
2024-01-17T05:51:11.697Z,57.27
2024-01-17T05:53:41.339Z,57.46
2024-01-17T05:56:11.986Z,57.27
2024-01-17T05:58:42.054Z,57.08
2024-01-17T06:01:11.248Z,57.02
2024-01-17T06:03:41.213Z,57.05
2024-01-17T06:06:10.554Z,57.30
2024-01-17T06:08:41.618Z,57.13
2024-01-17T06:11:13.357Z,57.05
2024-01-17T06:13:42.917Z,57.36
2024-01-17T06:16:12.013Z,57.30
2024-01-17T06:18:41.623Z,57.42
2024-01-17T06:21:10.850Z,57.29
2024-01-17T06:23:40.366Z,57.24
2024-01-17T06:26:10.438Z,57.26
2024-01-17T06:28:41.399Z,57.46
2024-01-17T06:31:13.397Z,57.17
2024-01-17T06:33:44.401Z,57.44
2024-01-17T06:36:16.144Z,57.71
2024-01-17T06:38:45.779Z,57.55
2024-01-17T06:41:14.965Z,57.52
2024-01-17T06:43:46.352Z,57.58
2024-01-17T06:46:17.378Z,57.69
2024-01-17T06:48:48.806Z,57.38
2024-01-17T06:51:18.421Z,57.40
2024-01-17T06:53:49.938Z,57.43
2024-01-17T06:56:19.169Z,57.47
2024-01-17T06:58:50.075Z,57.37
2024-01-17T07:01:21.020Z,57.82
2024-01-17T07:03:50.623Z,57.28
2024-01-17T07:06:20.346Z,57.67
2024-01-17T07:08:50.226Z,57.37
2024-01-17T07:11:20.294Z,57.80
2024-01-17T07:13:51.308Z,57.90
2024-01-17T07:16:20.514Z,57.62
2024-01-17T07:18:52.187Z,57.77
2024-01-17T07:21:21.470Z,57.99
2024-01-17T07:23:51.416Z,57.59
2024-01-17T07:26:20.627Z,57.54
2024-01-17T07:28:51.726Z,57.81
2024-01-17T07:31:25.118Z,57.95
2024-01-17T07:33:56.422Z,57.93
2024-01-17T07:36:28.634Z,57.46
2024-01-17T07:39:01.029Z,57.63
2024-01-17T07:41:32.242Z,57.56
2024-01-17T07:44:03.390Z,57.89
2024-01-17T07:46:32.694Z,58.02
2024-01-17T07:49:05.255Z,57.77
2024-01-17T07:51:37.344Z,57.94
2024-01-17T07:54:10.054Z,57.90
2024-01-17T07:56:42.334Z,58.06
2024-01-17T07:59:15.473Z,58.39
2024-01-17T08:01:49.893Z,58.63
2024-01-17T08:04:19.770Z,58.39
2024-01-17T08:06:49.393Z,58.67
2024-01-17T08:09:29.970Z,58.47
2024-01-17T08:11:59.999Z,58.51
2024-01-17T08:14:32.429Z,58.89
2024-01-17T08:17:06.440Z,58.98
2024-01-17T08:20:04.749Z,58.82
2024-01-17T08:22:56.892Z,58.64
2024-01-17T08:25:47.026Z,58.42
2024-01-17T08:28:18.088Z,58.52
2024-01-17T08:30:50.875Z,59.06
2024-01-17T08:33:34.699Z,58.86
2024-01-17T08:36:05.963Z,59.29
2024-01-17T08:38:58.472Z,58.73
2024-01-17T08:41:53.052Z,58.73
2024-01-17T08:44:29.892Z,59.03
2024-01-17T08:47:10.992Z,59.32
2024-01-17T08:50:01.956Z,59.44
2024-01-17T08:52:40.905Z,59.86
2024-01-17T08:55:15.968Z,59.53
2024-01-17T08:58:21.590Z,59.26
2024-01-17T09:00:57.444Z,59.18
2024-01-17T09:03:30.538Z,59.68
2024-01-17T09:05:59.865Z,60.48
2024-01-17T09:08:50.332Z,59.90
2024-01-17T09:11:20.879Z,60.04
2024-01-17T09:13:56.807Z,60.11
2024-01-17T09:17:43.392Z,60.03
2024-01-17T09:28:41.938Z,59.47
2024-01-17T09:31:13.624Z,59.55
2024-01-17T09:33:43.372Z,60.19
2024-01-17T09:36:22.055Z,59.86
2024-01-17T09:38:54.008Z,60.23
2024-01-17T09:42:11.919Z,59.88
2024-01-17T09:44:49.266Z,60.19
2024-01-17T09:47:36.884Z,60.05
2024-01-17T09:53:39.231Z,60.03
2024-01-17T09:56:23.303Z,60.08
2024-01-17T09:58:52.817Z,60.44
2024-01-17T10:01:22.019Z,60.01
2024-01-17T10:03:52.850Z,60.12
2024-01-17T10:06:22.797Z,60.49
2024-01-17T10:08:54.918Z,60.14
2024-01-17T10:11:30.331Z,59.91
2024-01-17T10:14:11.755Z,60.11
2024-01-17T10:19:29.752Z,60.08
2024-01-17T10:22:04.136Z,59.66
2024-01-17T10:24:38.511Z,59.80
2024-01-17T11:53:28.921Z,60.21
2024-01-17T11:56:55.248Z,60.00
2024-01-17T12:07:19.880Z,60.02
2024-01-17T12:10:21.059Z,60.37
2024-01-17T12:12:59.313Z,60.17
2024-01-17T12:15:30.550Z,60.23
2024-01-17T12:18:09.019Z,60.12
2024-01-17T12:20:41.663Z,60.35
2024-01-17T12:23:11.769Z,59.80
2024-01-17T12:25:42.761Z,60.06
2024-01-17T12:28:23.136Z,59.84
2024-01-17T12:31:02.962Z,60.12
2024-01-17T12:33:45.191Z,59.55
2024-01-17T13:27:52.683Z,59.79
2024-01-17T13:39:39.033Z,59.79
2024-01-17T13:42:10.482Z,59.58
2024-01-17T13:45:08.696Z,59.48
2024-01-17T13:47:52.058Z,59.45
2024-01-17T13:54:19.261Z,59.30
2024-01-17T13:57:15.404Z,59.21
2024-01-17T14:00:16.012Z,59.17
2024-01-17T14:06:24.030Z,59.24
2024-01-17T14:08:59.181Z,59.18
2024-01-17T14:11:41.770Z,59.17
2024-01-17T14:14:13.986Z,59.14
2024-01-17T14:16:48.129Z,59.06
2024-01-17T14:19:17.431Z,58.98
2024-01-17T14:21:53.117Z,59.05
2024-01-17T14:24:24.930Z,59.18
2024-01-17T14:27:02.522Z,59.10
2024-01-17T14:29:31.685Z,59.19
2024-01-17T14:32:01.152Z,59.03
2024-01-17T14:34:59.300Z,59.25
2024-01-17T14:41:30.138Z,59.09
2024-01-17T14:47:57.010Z,58.81
2024-01-17T15:08:08.211Z,58.82
2024-01-17T15:10:37.887Z,58.86
2024-01-17T15:13:10.111Z,58.73
2024-01-17T15:15:42.681Z,59.02
2024-01-17T15:18:13.268Z,58.59
2024-01-17T15:20:43.125Z,58.65
2024-01-17T15:23:14.751Z,58.59
2024-01-17T15:25:45.247Z,58.63
2024-01-17T15:28:24.201Z,59.05
2024-01-17T15:30:59.216Z,58.65
2024-01-17T15:33:30.039Z,58.89
2024-01-17T15:35:59.738Z,59.01
2024-01-17T15:38:33.206Z,58.75
2024-01-17T15:41:16.972Z,59.05
2024-01-17T15:48:12.649Z,58.77
2024-01-17T15:50:48.695Z,58.50
2024-01-17T15:53:20.763Z,58.46
2024-01-17T15:55:50.187Z,58.96
2024-01-17T15:58:19.493Z,58.94
2024-01-17T16:00:49.276Z,58.64
2024-01-17T16:03:19.201Z,58.77
2024-01-17T16:05:55.998Z,58.89
2024-01-17T16:08:28.242Z,58.72
2024-01-17T16:10:59.908Z,58.52
2024-01-17T16:13:29.662Z,58.44
2024-01-17T16:15:59.898Z,58.74
2024-01-17T16:18:29.272Z,58.86
2024-01-17T16:21:00.556Z,58.84
2024-01-17T16:23:29.733Z,58.50
2024-01-17T16:25:59.561Z,58.81
2024-01-17T16:28:28.904Z,58.64
2024-01-17T16:30:58.492Z,58.79
2024-01-17T16:33:27.935Z,58.54
2024-01-17T16:35:57.764Z,58.79
2024-01-17T16:38:28.367Z,58.71
2024-01-17T16:40:58.558Z,58.45
2024-01-17T16:43:27.787Z,58.29
2024-01-17T16:45:58.685Z,58.63
2024-01-17T16:48:31.095Z,58.82
2024-01-17T16:51:04.031Z,58.75
2024-01-17T16:53:34.696Z,58.22
2024-01-17T16:56:04.409Z,58.23
2024-01-17T16:58:34.506Z,58.66
2024-01-17T17:01:05.014Z,58.57
2024-01-17T17:03:37.461Z,58.44
2024-01-17T17:06:10.219Z,58.31
2024-01-17T17:08:43.678Z,58.74
2024-01-17T17:11:13.055Z,58.63
2024-01-17T17:13:42.181Z,58.47
2024-01-17T17:16:11.648Z,58.43
2024-01-17T17:18:41.225Z,58.53
2024-01-17T17:21:12.131Z,58.69
2024-01-17T17:23:42.722Z,58.65
2024-01-17T17:26:12.325Z,58.70
2024-01-17T17:28:47.622Z,58.33
2024-01-17T17:31:23.298Z,58.19
2024-01-17T17:33:52.471Z,58.71
2024-01-17T17:36:29.194Z,58.49
2024-01-17T17:39:02.661Z,58.46
2024-01-17T17:41:36.777Z,58.78
2024-01-17T17:44:06.139Z,58.75
2024-01-17T17:46:37.717Z,58.26
2024-01-17T17:49:09.318Z,58.33
2024-01-17T17:51:39.177Z,58.46
2024-01-17T17:54:09.608Z,58.36
2024-01-17T17:56:42.354Z,58.46
2024-01-17T17:59:22.108Z,58.29
2024-01-17T18:01:51.515Z,58.48
2024-01-17T18:04:26.470Z,58.63
2024-01-17T18:10:57.017Z,58.69
2024-01-17T18:13:30.519Z,58.63
2024-01-17T18:16:01.974Z,58.23
2024-01-17T18:18:35.346Z,58.54
2024-01-17T18:21:04.824Z,58.34
2024-01-17T18:23:42.292Z,58.43
2024-01-17T18:26:15.700Z,58.21
2024-01-17T18:28:53.963Z,58.48
2024-01-17T18:31:24.389Z,58.31
2024-01-17T18:33:55.870Z,58.28
2024-01-17T18:36:28.399Z,58.56
2024-01-17T18:39:04.504Z,58.12
2024-01-17T18:41:35.022Z,58.29
2024-01-17T18:44:04.416Z,58.20
2024-01-17T18:46:45.654Z,58.17
2024-01-17T18:54:22.362Z,58.53
2024-01-17T18:57:26.020Z,58.59
2024-01-17T19:00:13.426Z,58.46
2024-01-17T19:06:37.372Z,58.57
2024-01-17T19:09:24.225Z,58.53
2024-01-17T19:13:59.951Z,58.34
2024-01-17T19:15:49.343Z,58.45
2024-01-17T19:18:21.734Z,58.14
2024-01-17T19:21:03.097Z,58.48
2024-01-17T19:23:44.285Z,58.60
2024-01-17T19:26:14.088Z,58.15
2024-01-17T19:28:49.489Z,58.13
2024-01-17T19:31:24.133Z,58.51
2024-01-17T19:34:03.277Z,58.22
2024-01-17T19:36:40.265Z,58.43
2024-01-17T19:39:13.058Z,58.48
2024-01-17T19:41:42.148Z,58.17
2024-01-17T19:44:20.517Z,58.49
2024-01-17T19:47:03.171Z,58.08
2024-01-17T19:49:47.336Z,58.34
2024-01-17T19:52:17.222Z,58.31
2024-01-17T19:54:50.814Z,58.43
2024-01-17T19:57:24.350Z,58.22
2024-01-17T19:59:56.642Z,58.11
2024-01-17T20:02:29.362Z,58.12
2024-01-17T20:05:01.942Z,58.49
2024-01-17T20:07:31.197Z,58.13
2024-01-17T20:10:02.453Z,58.46
2024-01-17T20:16:34.190Z,58.01
2024-01-17T20:19:39.175Z,58.07
2024-01-17T20:26:20.039Z,58.46
2024-01-17T20:28:51.702Z,58.49
2024-01-17T20:31:21.477Z,58.47
2024-01-17T20:33:53.341Z,58.30
2024-01-17T20:40:24.377Z,58.30
2024-01-17T20:42:58.028Z,58.34
2024-01-17T21:09:07.262Z,58.59
2024-01-17T21:11:38.505Z,58.43
2024-01-17T21:14:09.128Z,58.44
2024-01-17T21:16:57.503Z,58.69
2024-01-17T21:19:26.696Z,58.23
2024-01-17T21:21:56.821Z,58.19
2024-01-17T21:24:27.279Z,58.28
2024-01-17T21:47:06.077Z,58.19
2024-01-17T21:50:09.914Z,58.53
2024-01-17T21:53:03.273Z,58.23
2024-01-17T21:55:32.731Z,58.29
2024-01-17T21:58:01.769Z,58.29
2024-01-17T22:00:31.622Z,58.29
2024-01-17T22:03:02.252Z,58.46
2024-01-17T22:05:32.740Z,58.26
2024-01-17T22:08:01.914Z,58.25
2024-01-17T22:10:31.383Z,58.30
2024-01-17T22:13:00.356Z,58.69
2024-01-17T22:15:29.918Z,58.37
2024-01-17T22:17:59.020Z,58.30
2024-01-17T22:20:31.057Z,58.29
2024-01-17T22:23:00.198Z,58.59
2024-01-17T22:25:29.555Z,58.40
2024-01-17T22:27:59.738Z,58.58
2024-01-17T22:30:29.454Z,58.52
2024-01-17T22:32:58.881Z,58.77
2024-01-17T22:35:29.813Z,58.75
2024-01-17T22:37:58.891Z,58.51
2024-01-17T22:40:28.216Z,58.30
2024-01-17T22:42:57.269Z,58.43
2024-01-17T22:45:26.888Z,58.83
2024-01-17T22:47:56.094Z,58.54
2024-01-17T22:50:25.508Z,58.55
2024-01-17T22:53:02.733Z,58.68
2024-01-17T22:55:33.220Z,58.64
2024-01-17T22:58:02.409Z,58.53
2024-01-17T23:00:31.966Z,58.36
2024-01-17T23:03:01.394Z,58.78
2024-01-17T23:05:32.148Z,58.70
2024-01-17T23:08:08.545Z,58.66
2024-01-17T23:10:40.825Z,59.03
2024-01-17T23:13:09.834Z,58.37
2024-01-17T23:15:39.463Z,58.78
2024-01-17T23:18:09.066Z,58.62
2024-01-17T23:20:38.632Z,58.46
2024-01-17T23:23:09.208Z,58.69
2024-01-17T23:25:38.613Z,58.48
2024-01-17T23:28:07.990Z,58.76
2024-01-17T23:30:37.441Z,58.46
2024-01-17T23:33:06.896Z,58.84
2024-01-17T23:35:36.440Z,58.51
2024-01-17T23:38:05.664Z,58.41
2024-01-17T23:40:36.458Z,58.44
2024-01-17T23:43:06.003Z,58.56
2024-01-17T23:45:35.619Z,58.47
2024-01-17T23:48:04.913Z,58.83
2024-01-17T23:50:34.345Z,58.47
2024-01-17T23:53:03.498Z,58.51
2024-01-17T23:55:32.778Z,58.48
2024-01-17T23:58:03.200Z,58.72
